sensor_id;sensor_type;location;lat;lon;timestamp;P1;durP1;ratioP1;P2;durP2;ratioP2
37407;SDS011;24866;50.248;8.252;2023-08-31T00:00:45;15.50;;;5.32;;
37407;SDS011;24866;50.248;8.252;2023-08-31T00:03:15;8.50;;;4.72;;
37407;SDS011;24866;50.248;8.252;2023-08-31T00:05:47;9.02;;;4.97;;
37407;SDS011;24866;50.248;8.252;2023-08-31T00:08:19;9.10;;;4.75;;
37407;SDS011;24866;50.248;8.252;2023-08-31T00:10:56;9.73;;;5.45;;
37407;SDS011;24866;50.248;8.252;2023-08-31T00:13:28;8.65;;;4.75;;
37407;SDS011;24866;50.248;8.252;2023-08-31T00:15:58;11.32;;;5.53;;
37407;SDS011;24866;50.248;8.252;2023-08-31T00:18:28;8.70;;;5.55;;
37407;SDS011;24866;50.248;8.252;2023-08-31T00:20:59;7.47;;;4.93;;
37407;SDS011;24866;50.248;8.252;2023-08-31T00:23:29;9.77;;;4.90;;
37407;SDS011;24866;50.248;8.252;2023-08-31T00:25:59;8.25;;;5.30;;
37407;SDS011;24866;50.248;8.252;2023-08-31T00:28:29;12.55;;;6.03;;
37407;SDS011;24866;50.248;8.252;2023-08-31T00:31:00;10.13;;;5.25;;
37407;SDS011;24866;50.248;8.252;2023-08-31T00:33:32;8.35;;;5.82;;
37407;SDS011;24866;50.248;8.252;2023-08-31T00:36:04;11.27;;;6.93;;
37407;SDS011;24866;50.248;8.252;2023-08-31T00:38:34;9.52;;;6.55;;
37407;SDS011;24866;50.248;8.252;2023-08-31T00:41:04;10.70;;;5.72;;
37407;SDS011;24866;50.248;8.252;2023-08-31T00:43:34;10.27;;;6.00;;
37407;SDS011;24866;50.248;8.252;2023-08-31T00:46:04;12.20;;;5.93;;
37407;SDS011;24866;50.248;8.252;2023-08-31T00:48:34;9.90;;;6.00;;
37407;SDS011;24866;50.248;8.252;2023-08-31T00:51:06;10.98;;;6.30;;
37407;SDS011;24866;50.248;8.252;2023-08-31T00:53:38;9.38;;;6.22;;
37407;SDS011;24866;50.248;8.252;2023-08-31T00:56:09;10.70;;;5.93;;
37407;SDS011;24866;50.248;8.252;2023-08-31T00:58:39;11.05;;;5.75;;
37407;SDS011;24866;50.248;8.252;2023-08-31T01:01:10;10.23;;;7.50;;
37407;SDS011;24866;50.248;8.252;2023-08-31T01:03:48;11.15;;;5.78;;
37407;SDS011;24866;50.248;8.252;2023-08-31T01:06:27;9.85;;;5.68;;
37407;SDS011;24866;50.248;8.252;2023-08-31T01:09:05;7.55;;;4.15;;
37407;SDS011;24866;50.248;8.252;2023-08-31T01:11:45;9.70;;;6.18;;
37407;SDS011;24866;50.248;8.252;2023-08-31T01:14:27;10.55;;;5.07;;
37407;SDS011;24866;50.248;8.252;2023-08-31T01:17:01;7.13;;;4.80;;
37407;SDS011;24866;50.248;8.252;2023-08-31T01:22:24;8.20;;;5.03;;
37407;SDS011;24866;50.248;8.252;2023-08-31T01:25:01;10.07;;;4.78;;
37407;SDS011;24866;50.248;8.252;2023-08-31T01:27:32;9.00;;;5.32;;
37407;SDS011;24866;50.248;8.252;2023-08-31T01:30:03;9.68;;;5.88;;
37407;SDS011;24866;50.248;8.252;2023-08-31T01:32:34;7.43;;;5.07;;
37407;SDS011;24866;50.248;8.252;2023-08-31T01:35:05;12.65;;;5.95;;
37407;SDS011;24866;50.248;8.252;2023-08-31T01:37:39;9.30;;;5.55;;
37407;SDS011;24866;50.248;8.252;2023-08-31T01:40:15;12.93;;;5.18;;
37407;SDS011;24866;50.248;8.252;2023-08-31T01:42:49;10.38;;;5.18;;
37407;SDS011;24866;50.248;8.252;2023-08-31T01:45:20;9.77;;;5.22;;
37407;SDS011;24866;50.248;8.252;2023-08-31T01:47:51;9.45;;;5.43;;
37407;SDS011;24866;50.248;8.252;2023-08-31T01:50:21;9.93;;;5.38;;
37407;SDS011;24866;50.248;8.252;2023-08-31T01:52:51;9.93;;;4.88;;
37407;SDS011;24866;50.248;8.252;2023-08-31T01:55:23;9.18;;;5.10;;
37407;SDS011;24866;50.248;8.252;2023-08-31T01:57:54;9.07;;;5.70;;
37407;SDS011;24866;50.248;8.252;2023-08-31T02:00:24;9.77;;;6.50;;
37407;SDS011;24866;50.248;8.252;2023-08-31T02:02:56;10.38;;;6.40;;
37407;SDS011;24866;50.248;8.252;2023-08-31T02:05:26;8.25;;;5.97;;
37407;SDS011;24866;50.248;8.252;2023-08-31T02:07:56;12.25;;;5.75;;
37407;SDS011;24866;50.248;8.252;2023-08-31T02:10:27;8.15;;;5.45;;
37407;SDS011;24866;50.248;8.252;2023-08-31T02:12:59;9.00;;;5.93;;
37407;SDS011;24866;50.248;8.252;2023-08-31T02:15:29;8.53;;;4.93;;
37407;SDS011;24866;50.248;8.252;2023-08-31T02:17:59;9.02;;;5.90;;
37407;SDS011;24866;50.248;8.252;2023-08-31T02:20:29;8.35;;;5.53;;
37407;SDS011;24866;50.248;8.252;2023-08-31T02:22:59;8.82;;;6.28;;
37407;SDS011;24866;50.248;8.252;2023-08-31T02:25:31;10.18;;;5.55;;
37407;SDS011;24866;50.248;8.252;2023-08-31T02:28:01;12.07;;;6.33;;
37407;SDS011;24866;50.248;8.252;2023-08-31T02:30:31;11.73;;;5.97;;
37407;SDS011;24866;50.248;8.252;2023-08-31T02:33:01;11.65;;;6.35;;
37407;SDS011;24866;50.248;8.252;2023-08-31T02:35:31;8.07;;;6.10;;
37407;SDS011;24866;50.248;8.252;2023-08-31T02:38:02;8.80;;;6.30;;
37407;SDS011;24866;50.248;8.252;2023-08-31T02:40:33;9.88;;;6.07;;
37407;SDS011;24866;50.248;8.252;2023-08-31T02:43:03;9.02;;;5.55;;
37407;SDS011;24866;50.248;8.252;2023-08-31T02:45:33;11.23;;;5.82;;
37407;SDS011;24866;50.248;8.252;2023-08-31T02:48:04;9.93;;;6.57;;
37407;SDS011;24866;50.248;8.252;2023-08-31T02:50:35;10.07;;;6.70;;
37407;SDS011;24866;50.248;8.252;2023-08-31T02:53:05;11.40;;;6.70;;
37407;SDS011;24866;50.248;8.252;2023-08-31T02:55:37;12.57;;;7.10;;
37407;SDS011;24866;50.248;8.252;2023-08-31T02:58:07;9.98;;;6.78;;
37407;SDS011;24866;50.248;8.252;2023-08-31T03:00:37;12.85;;;7.20;;
37407;SDS011;24866;50.248;8.252;2023-08-31T03:03:10;12.65;;;6.72;;
37407;SDS011;24866;50.248;8.252;2023-08-31T03:05:40;11.25;;;6.93;;
37407;SDS011;24866;50.248;8.252;2023-08-31T03:08:10;8.98;;;6.43;;
37407;SDS011;24866;50.248;8.252;2023-08-31T03:10:41;11.45;;;6.93;;
37407;SDS011;24866;50.248;8.252;2023-08-31T03:13:12;10.32;;;6.55;;
37407;SDS011;24866;50.248;8.252;2023-08-31T03:15:42;10.25;;;6.72;;
37407;SDS011;24866;50.248;8.252;2023-08-31T03:18:12;11.50;;;6.40;;
37407;SDS011;24866;50.248;8.252;2023-08-31T03:20:42;10.13;;;6.60;;
37407;SDS011;24866;50.248;8.252;2023-08-31T03:23:11;13.55;;;6.60;;
37407;SDS011;24866;50.248;8.252;2023-08-31T03:25:43;9.77;;;6.20;;
37407;SDS011;24866;50.248;8.252;2023-08-31T03:28:13;13.50;;;7.05;;
37407;SDS011;24866;50.248;8.252;2023-08-31T03:30:42;12.27;;;6.80;;
37407;SDS011;24866;50.248;8.252;2023-08-31T03:33:13;9.30;;;6.10;;
37407;SDS011;24866;50.248;8.252;2023-08-31T03:35:43;7.47;;;5.10;;
37407;SDS011;24866;50.248;8.252;2023-08-31T03:38:12;9.68;;;6.13;;
37407;SDS011;24866;50.248;8.252;2023-08-31T03:40:44;9.88;;;6.40;;
37407;SDS011;24866;50.248;8.252;2023-08-31T03:43:22;9.88;;;5.93;;
37407;SDS011;24866;50.248;8.252;2023-08-31T03:45:55;9.85;;;5.85;;
37407;SDS011;24866;50.248;8.252;2023-08-31T03:48:25;9.85;;;5.57;;
37407;SDS011;24866;50.248;8.252;2023-08-31T03:50:55;9.32;;;5.60;;
37407;SDS011;24866;50.248;8.252;2023-08-31T03:53:25;9.98;;;5.63;;
37407;SDS011;24866;50.248;8.252;2023-08-31T03:55:56;7.35;;;5.13;;
37407;SDS011;24866;50.248;8.252;2023-08-31T03:58:26;7.60;;;5.28;;
37407;SDS011;24866;50.248;8.252;2023-08-31T04:00:56;8.85;;;5.57;;
37407;SDS011;24866;50.248;8.252;2023-08-31T04:03:26;9.18;;;6.20;;
37407;SDS011;24866;50.248;8.252;2023-08-31T04:05:56;11.23;;;5.50;;
37407;SDS011;24866;50.248;8.252;2023-08-31T04:08:26;9.50;;;5.60;;
37407;SDS011;24866;50.248;8.252;2023-08-31T04:10:57;10.57;;;5.75;;
37407;SDS011;24866;50.248;8.252;2023-08-31T04:13:27;10.45;;;6.38;;
37407;SDS011;24866;50.248;8.252;2023-08-31T04:15:57;8.57;;;5.95;;
37407;SDS011;24866;50.248;8.252;2023-08-31T04:18:27;7.80;;;5.55;;
37407;SDS011;24866;50.248;8.252;2023-08-31T04:20:57;7.20;;;5.90;;
37407;SDS011;24866;50.248;8.252;2023-08-31T04:23:31;9.95;;;6.10;;
37407;SDS011;24866;50.248;8.252;2023-08-31T04:26:10;10.48;;;5.90;;
37407;SDS011;24866;50.248;8.252;2023-08-31T04:28:41;7.78;;;4.88;;
37407;SDS011;24866;50.248;8.252;2023-08-31T04:31:11;7.80;;;5.60;;
37407;SDS011;24866;50.248;8.252;2023-08-31T04:33:41;9.52;;;5.50;;
37407;SDS011;24866;50.248;8.252;2023-08-31T04:36:11;6.85;;;4.80;;
37407;SDS011;24866;50.248;8.252;2023-08-31T04:38:40;9.73;;;5.60;;
37407;SDS011;24866;50.248;8.252;2023-08-31T04:41:12;9.80;;;5.72;;
37407;SDS011;24866;50.248;8.252;2023-08-31T04:43:42;11.95;;;4.93;;
37407;SDS011;24866;50.248;8.252;2023-08-31T04:46:11;8.77;;;5.45;;
37407;SDS011;24866;50.248;8.252;2023-08-31T04:48:41;8.95;;;4.95;;
37407;SDS011;24866;50.248;8.252;2023-08-31T04:51:26;8.15;;;5.05;;
37407;SDS011;24866;50.248;8.252;2023-08-31T04:53:57;10.05;;;5.68;;
37407;SDS011;24866;50.248;8.252;2023-08-31T04:56:30;6.25;;;4.75;;
37407;SDS011;24866;50.248;8.252;2023-08-31T04:59:01;10.23;;;6.43;;
37407;SDS011;24866;50.248;8.252;2023-08-31T05:01:32;12.45;;;6.53;;
37407;SDS011;24866;50.248;8.252;2023-08-31T05:04:02;8.65;;;5.35;;
37407;SDS011;24866;50.248;8.252;2023-08-31T05:06:32;10.45;;;6.15;;
37407;SDS011;24866;50.248;8.252;2023-08-31T05:09:02;10.27;;;5.63;;
37407;SDS011;24866;50.248;8.252;2023-08-31T05:11:35;12.77;;;5.13;;
37407;SDS011;24866;50.248;8.252;2023-08-31T05:14:05;10.18;;;6.10;;
37407;SDS011;24866;50.248;8.252;2023-08-31T05:16:35;9.00;;;4.97;;
37407;SDS011;24866;50.248;8.252;2023-08-31T05:19:05;7.88;;;5.93;;
37407;SDS011;24866;50.248;8.252;2023-08-31T05:21:35;11.40;;;5.18;;
37407;SDS011;24866;50.248;8.252;2023-08-31T05:24:05;9.38;;;5.18;;
37407;SDS011;24866;50.248;8.252;2023-08-31T05:26:37;8.13;;;5.03;;
37407;SDS011;24866;50.248;8.252;2023-08-31T05:29:07;8.95;;;5.32;;
37407;SDS011;24866;50.248;8.252;2023-08-31T05:31:37;9.20;;;4.60;;
37407;SDS011;24866;50.248;8.252;2023-08-31T05:34:08;9.13;;;5.28;;
37407;SDS011;24866;50.248;8.252;2023-08-31T05:36:39;7.68;;;4.82;;
37407;SDS011;24866;50.248;8.252;2023-08-31T05:39:09;7.88;;;4.32;;
37407;SDS011;24866;50.248;8.252;2023-08-31T05:41:41;10.07;;;4.10;;
37407;SDS011;24866;50.248;8.252;2023-08-31T05:44:11;8.20;;;4.60;;
37407;SDS011;24866;50.248;8.252;2023-08-31T05:46:41;8.98;;;4.40;;
37407;SDS011;24866;50.248;8.252;2023-08-31T05:49:10;9.38;;;4.50;;
37407;SDS011;24866;50.248;8.252;2023-08-31T05:51:40;6.70;;;3.65;;
37407;SDS011;24866;50.248;8.252;2023-08-31T05:54:10;8.75;;;4.30;;
37407;SDS011;24866;50.248;8.252;2023-08-31T05:56:42;6.93;;;4.05;;
37407;SDS011;24866;50.248;8.252;2023-08-31T05:59:12;7.13;;;4.30;;
37407;SDS011;24866;50.248;8.252;2023-08-31T06:01:43;8.70;;;3.90;;
37407;SDS011;24866;50.248;8.252;2023-08-31T06:04:13;9.40;;;4.22;;
37407;SDS011;24866;50.248;8.252;2023-08-31T06:06:42;7.07;;;3.90;;
37407;SDS011;24866;50.248;8.252;2023-08-31T06:09:12;7.72;;;3.92;;
37407;SDS011;24866;50.248;8.252;2023-08-31T06:11:44;8.05;;;3.65;;
37407;SDS011;24866;50.248;8.252;2023-08-31T06:14:14;4.45;;;3.03;;
37407;SDS011;24866;50.248;8.252;2023-08-31T06:16:43;6.00;;;3.70;;
37407;SDS011;24866;50.248;8.252;2023-08-31T06:19:13;4.57;;;3.03;;
37407;SDS011;24866;50.248;8.252;2023-08-31T06:21:44;6.93;;;3.55;;
37407;SDS011;24866;50.248;8.252;2023-08-31T06:24:14;7.35;;;3.95;;
37407;SDS011;24866;50.248;8.252;2023-08-31T06:26:45;9.35;;;3.47;;
37407;SDS011;24866;50.248;8.252;2023-08-31T06:29:15;8.80;;;3.60;;
37407;SDS011;24866;50.248;8.252;2023-08-31T06:31:45;10.52;;;3.53;;
37407;SDS011;24866;50.248;8.252;2023-08-31T06:34:15;7.40;;;2.97;;
37407;SDS011;24866;50.248;8.252;2023-08-31T06:36:45;9.32;;;3.67;;
37407;SDS011;24866;50.248;8.252;2023-08-31T06:39:15;5.80;;;3.45;;
37407;SDS011;24866;50.248;8.252;2023-08-31T06:41:47;6.20;;;3.17;;
37407;SDS011;24866;50.248;8.252;2023-08-31T06:44:17;8.15;;;3.53;;
37407;SDS011;24866;50.248;8.252;2023-08-31T06:46:47;5.95;;;2.70;;
37407;SDS011;24866;50.248;8.252;2023-08-31T06:49:17;10.80;;;3.30;;
37407;SDS011;24866;50.248;8.252;2023-08-31T06:51:48;8.68;;;3.85;;
37407;SDS011;24866;50.248;8.252;2023-08-31T06:54:18;6.40;;;2.70;;
37407;SDS011;24866;50.248;8.252;2023-08-31T06:56:50;6.18;;;3.13;;
37407;SDS011;24866;50.248;8.252;2023-08-31T06:59:19;7.25;;;3.33;;
37407;SDS011;24866;50.248;8.252;2023-08-31T07:01:49;7.35;;;2.92;;
37407;SDS011;24866;50.248;8.252;2023-08-31T07:04:19;5.22;;;2.67;;
37407;SDS011;24866;50.248;8.252;2023-08-31T07:06:49;9.90;;;2.95;;
37407;SDS011;24866;50.248;8.252;2023-08-31T07:09:20;7.35;;;2.88;;
37407;SDS011;24866;50.248;8.252;2023-08-31T07:11:51;9.82;;;3.08;;
37407;SDS011;24866;50.248;8.252;2023-08-31T07:14:21;9.45;;;3.03;;
37407;SDS011;24866;50.248;8.252;2023-08-31T07:16:51;11.25;;;3.10;;
37407;SDS011;24866;50.248;8.252;2023-08-31T07:19:21;10.40;;;2.75;;
37407;SDS011;24866;50.248;8.252;2023-08-31T07:21:51;7.63;;;2.42;;
37407;SDS011;24866;50.248;8.252;2023-08-31T07:24:22;4.10;;;2.33;;
37407;SDS011;24866;50.248;8.252;2023-08-31T07:26:54;8.25;;;2.45;;
37407;SDS011;24866;50.248;8.252;2023-08-31T07:29:24;10.68;;;3.08;;
37407;SDS011;24866;50.248;8.252;2023-08-31T07:31:54;10.27;;;2.42;;
37407;SDS011;24866;50.248;8.252;2023-08-31T07:34:24;9.20;;;2.40;;
37407;SDS011;24866;50.248;8.252;2023-08-31T07:36:54;4.95;;;2.58;;
37407;SDS011;24866;50.248;8.252;2023-08-31T07:39:25;7.35;;;2.60;;
37407;SDS011;24866;50.248;8.252;2023-08-31T07:41:57;9.65;;;3.00;;
37407;SDS011;24866;50.248;8.252;2023-08-31T07:44:27;7.57;;;2.80;;
37407;SDS011;24866;50.248;8.252;2023-08-31T07:46:57;5.47;;;2.67;;
37407;SDS011;24866;50.248;8.252;2023-08-31T07:49:27;5.03;;;2.17;;
37407;SDS011;24866;50.248;8.252;2023-08-31T07:51:57;5.68;;;2.00;;
37407;SDS011;24866;50.248;8.252;2023-08-31T07:54:27;3.97;;;2.15;;
37407;SDS011;24866;50.248;8.252;2023-08-31T07:56:59;5.13;;;2.40;;
37407;SDS011;24866;50.248;8.252;2023-08-31T07:59:29;5.68;;;2.47;;
37407;SDS011;24866;50.248;8.252;2023-08-31T08:01:59;8.45;;;2.30;;
37407;SDS011;24866;50.248;8.252;2023-08-31T08:04:29;5.63;;;2.38;;
37407;SDS011;24866;50.248;8.252;2023-08-31T08:06:59;2.85;;;1.80;;
37407;SDS011;24866;50.248;8.252;2023-08-31T08:09:29;6.85;;;2.50;;
37407;SDS011;24866;50.248;8.252;2023-08-31T08:12:01;5.18;;;2.13;;
37407;SDS011;24866;50.248;8.252;2023-08-31T08:14:32;5.23;;;2.00;;
37407;SDS011;24866;50.248;8.252;2023-08-31T08:17:02;8.52;;;2.45;;
37407;SDS011;24866;50.248;8.252;2023-08-31T08:19:32;8.38;;;2.25;;
37407;SDS011;24866;50.248;8.252;2023-08-31T08:22:03;5.70;;;2.10;;
37407;SDS011;24866;50.248;8.252;2023-08-31T08:24:33;6.88;;;2.08;;
37407;SDS011;24866;50.248;8.252;2023-08-31T08:27:05;4.95;;;2.00;;
37407;SDS011;24866;50.248;8.252;2023-08-31T08:29:35;8.73;;;1.92;;
37407;SDS011;24866;50.248;8.252;2023-08-31T08:32:05;6.40;;;2.22;;
37407;SDS011;24866;50.248;8.252;2023-08-31T08:34:36;6.13;;;2.22;;
37407;SDS011;24866;50.248;8.252;2023-08-31T08:37:06;10.25;;;2.28;;
37407;SDS011;24866;50.248;8.252;2023-08-31T08:39:36;5.57;;;1.75;;
37407;SDS011;24866;50.248;8.252;2023-08-31T08:42:09;7.88;;;2.75;;
37407;SDS011;24866;50.248;8.252;2023-08-31T08:47:11;8.68;;;1.95;;
37407;SDS011;24866;50.248;8.252;2023-08-31T08:49:41;6.57;;;2.47;;
37407;SDS011;24866;50.248;8.252;2023-08-31T08:52:12;4.65;;;2.10;;
37407;SDS011;24866;50.248;8.252;2023-08-31T08:54:43;6.60;;;2.47;;
37407;SDS011;24866;50.248;8.252;2023-08-31T08:57:15;6.63;;;2.60;;
37407;SDS011;24866;50.248;8.252;2023-08-31T08:59:45;7.80;;;2.20;;
37407;SDS011;24866;50.248;8.252;2023-08-31T09:02:15;8.82;;;2.00;;
37407;SDS011;24866;50.248;8.252;2023-08-31T09:04:45;4.00;;;1.60;;
37407;SDS011;24866;50.248;8.252;2023-08-31T09:07:15;6.53;;;1.95;;
37407;SDS011;24866;50.248;8.252;2023-08-31T09:09:49;4.10;;;1.92;;
37407;SDS011;24866;50.248;8.252;2023-08-31T09:12:22;5.85;;;2.10;;
37407;SDS011;24866;50.248;8.252;2023-08-31T09:14:56;6.20;;;1.98;;
37407;SDS011;24866;50.248;8.252;2023-08-31T09:17:37;4.80;;;1.95;;
37407;SDS011;24866;50.248;8.252;2023-08-31T09:20:08;4.97;;;1.92;;
37407;SDS011;24866;50.248;8.252;2023-08-31T09:22:39;5.57;;;2.33;;
37407;SDS011;24866;50.248;8.252;2023-08-31T09:25:13;5.50;;;2.25;;
37407;SDS011;24866;50.248;8.252;2023-08-31T09:27:44;8.65;;;2.75;;
37407;SDS011;24866;50.248;8.252;2023-08-31T09:30:15;7.40;;;1.83;;
37407;SDS011;24866;50.248;8.252;2023-08-31T09:32:51;7.22;;;2.47;;
37407;SDS011;24866;50.248;8.252;2023-08-31T09:35:21;7.72;;;2.13;;
37407;SDS011;24866;50.248;8.252;2023-08-31T09:37:56;4.00;;;1.70;;
37407;SDS011;24866;50.248;8.252;2023-08-31T09:40:26;5.47;;;2.85;;
37407;SDS011;24866;50.248;8.252;2023-08-31T09:42:58;5.55;;;2.00;;
37407;SDS011;24866;50.248;8.252;2023-08-31T09:45:29;9.50;;;2.53;;
37407;SDS011;24866;50.248;8.252;2023-08-31T09:48:00;7.15;;;2.70;;
37407;SDS011;24866;50.248;8.252;2023-08-31T09:50:31;7.85;;;2.05;;
37407;SDS011;24866;50.248;8.252;2023-08-31T09:53:03;5.63;;;2.20;;
37407;SDS011;24866;50.248;8.252;2023-08-31T09:55:34;6.63;;;2.78;;
37407;SDS011;24866;50.248;8.252;2023-08-31T09:58:09;7.03;;;1.80;;
37407;SDS011;24866;50.248;8.252;2023-08-31T10:00:39;7.55;;;2.10;;
37407;SDS011;24866;50.248;8.252;2023-08-31T10:03:09;4.18;;;1.50;;
37407;SDS011;24866;50.248;8.252;2023-08-31T10:05:42;6.55;;;2.55;;
37407;SDS011;24866;50.248;8.252;2023-08-31T10:08:13;7.32;;;1.50;;
37407;SDS011;24866;50.248;8.252;2023-08-31T10:10:44;9.95;;;2.03;;
37407;SDS011;24866;50.248;8.252;2023-08-31T10:13:16;6.13;;;2.20;;
37407;SDS011;24866;50.248;8.252;2023-08-31T10:15:49;3.95;;;1.42;;
37407;SDS011;24866;50.248;8.252;2023-08-31T10:18:19;7.55;;;2.33;;
37407;SDS011;24866;50.248;8.252;2023-08-31T10:20:50;6.55;;;2.60;;
37407;SDS011;24866;50.248;8.252;2023-08-31T10:23:20;9.27;;;2.28;;
37407;SDS011;24866;50.248;8.252;2023-08-31T10:26:00;5.78;;;2.30;;
37407;SDS011;24866;50.248;8.252;2023-08-31T10:28:40;5.50;;;1.97;;
37407;SDS011;24866;50.248;8.252;2023-08-31T10:31:15;8.80;;;2.17;;
37407;SDS011;24866;50.248;8.252;2023-08-31T10:33:46;6.88;;;1.83;;
37407;SDS011;24866;50.248;8.252;2023-08-31T10:36:16;7.35;;;2.80;;
37407;SDS011;24866;50.248;8.252;2023-08-31T10:39:00;6.72;;;2.13;;
37407;SDS011;24866;50.248;8.252;2023-08-31T10:41:33;4.13;;;1.70;;
37407;SDS011;24866;50.248;8.252;2023-08-31T10:44:18;3.00;;;1.63;;
37407;SDS011;24866;50.248;8.252;2023-08-31T10:46:49;6.68;;;2.20;;
37407;SDS011;24866;50.248;8.252;2023-08-31T10:49:21;7.68;;;2.25;;
37407;SDS011;24866;50.248;8.252;2023-08-31T10:51:53;6.60;;;2.00;;
37407;SDS011;24866;50.248;8.252;2023-08-31T10:54:25;8.60;;;2.35;;
37407;SDS011;24866;50.248;8.252;2023-08-31T10:57:03;8.02;;;2.42;;
37407;SDS011;24866;50.248;8.252;2023-08-31T10:59:43;6.93;;;2.00;;
37407;SDS011;24866;50.248;8.252;2023-08-31T11:02:32;6.82;;;2.20;;
37407;SDS011;24866;50.248;8.252;2023-08-31T11:05:07;8.73;;;2.22;;
37407;SDS011;24866;50.248;8.252;2023-08-31T11:07:38;6.13;;;1.90;;
37407;SDS011;24866;50.248;8.252;2023-08-31T11:10:13;8.65;;;2.20;;
37407;SDS011;24866;50.248;8.252;2023-08-31T11:12:45;4.78;;;1.85;;
37407;SDS011;24866;50.248;8.252;2023-08-31T11:15:18;4.88;;;1.85;;
37407;SDS011;24866;50.248;8.252;2023-08-31T11:17:49;7.80;;;2.08;;
37407;SDS011;24866;50.248;8.252;2023-08-31T11:20:21;3.92;;;1.67;;
37407;SDS011;24866;50.248;8.252;2023-08-31T11:22:52;5.22;;;1.60;;
37407;SDS011;24866;50.248;8.252;2023-08-31T11:25:22;9.50;;;2.20;;
37407;SDS011;24866;50.248;8.252;2023-08-31T11:27:53;2.50;;;1.45;;
37407;SDS011;24866;50.248;8.252;2023-08-31T11:30:26;6.10;;;1.85;;
37407;SDS011;24866;50.248;8.252;2023-08-31T11:32:56;5.35;;;1.55;;
37407;SDS011;24866;50.248;8.252;2023-08-31T11:35:31;6.85;;;2.38;;
37407;SDS011;24866;50.248;8.252;2023-08-31T11:38:02;6.20;;;2.00;;
37407;SDS011;24866;50.248;8.252;2023-08-31T11:40:33;4.15;;;1.20;;
37407;SDS011;24866;50.248;8.252;2023-08-31T11:43:03;4.03;;;1.55;;
37407;SDS011;24866;50.248;8.252;2023-08-31T11:45:36;5.55;;;2.03;;
37407;SDS011;24866;50.248;8.252;2023-08-31T11:48:07;5.10;;;1.90;;
37407;SDS011;24866;50.248;8.252;2023-08-31T11:50:38;4.50;;;1.65;;
37407;SDS011;24866;50.248;8.252;2023-08-31T11:53:10;5.23;;;1.97;;
37407;SDS011;24866;50.248;8.252;2023-08-31T11:55:48;6.53;;;2.05;;
37407;SDS011;24866;50.248;8.252;2023-08-31T11:58:19;5.95;;;2.28;;
37407;SDS011;24866;50.248;8.252;2023-08-31T12:00:55;6.45;;;2.05;;
37407;SDS011;24866;50.248;8.252;2023-08-31T12:03:26;6.90;;;2.33;;
37407;SDS011;24866;50.248;8.252;2023-08-31T12:05:56;4.28;;;1.85;;
37407;SDS011;24866;50.248;8.252;2023-08-31T12:08:27;6.40;;;2.30;;
37407;SDS011;24866;50.248;8.252;2023-08-31T12:10:57;4.32;;;1.50;;
37407;SDS011;24866;50.248;8.252;2023-08-31T12:13:30;6.20;;;1.88;;
37407;SDS011;24866;50.248;8.252;2023-08-31T12:16:02;6.97;;;1.88;;
37407;SDS011;24866;50.248;8.252;2023-08-31T12:18:32;5.50;;;2.10;;
37407;SDS011;24866;50.248;8.252;2023-08-31T12:21:07;6.18;;;2.33;;
37407;SDS011;24866;50.248;8.252;2023-08-31T12:23:37;6.63;;;1.52;;
37407;SDS011;24866;50.248;8.252;2023-08-31T12:26:07;3.85;;;1.92;;
37407;SDS011;24866;50.248;8.252;2023-08-31T12:28:37;4.28;;;1.73;;
37407;SDS011;24866;50.248;8.252;2023-08-31T12:31:10;4.72;;;1.48;;
37407;SDS011;24866;50.248;8.252;2023-08-31T12:33:40;5.93;;;1.67;;
37407;SDS011;24866;50.248;8.252;2023-08-31T12:36:11;3.92;;;1.52;;
37407;SDS011;24866;50.248;8.252;2023-08-31T12:38:41;4.78;;;1.80;;
37407;SDS011;24866;50.248;8.252;2023-08-31T12:41:11;2.97;;;1.38;;
37407;SDS011;24866;50.248;8.252;2023-08-31T12:43:41;4.85;;;1.92;;
37407;SDS011;24866;50.248;8.252;2023-08-31T12:46:12;4.95;;;1.85;;
37407;SDS011;24866;50.248;8.252;2023-08-31T12:48:42;3.25;;;1.50;;
37407;SDS011;24866;50.248;8.252;2023-08-31T12:51:12;4.68;;;2.05;;
37407;SDS011;24866;50.248;8.252;2023-08-31T12:53:42;6.25;;;1.60;;
37407;SDS011;24866;50.248;8.252;2023-08-31T12:56:12;3.72;;;1.60;;
37407;SDS011;24866;50.248;8.252;2023-08-31T12:58:43;5.55;;;1.95;;
37407;SDS011;24866;50.248;8.252;2023-08-31T13:01:14;6.55;;;1.75;;
37407;SDS011;24866;50.248;8.252;2023-08-31T13:03:44;3.33;;;1.52;;
37407;SDS011;24866;50.248;8.252;2023-08-31T13:06:15;3.08;;;1.23;;
37407;SDS011;24866;50.248;8.252;2023-08-31T13:08:45;5.00;;;1.75;;
37407;SDS011;24866;50.248;8.252;2023-08-31T13:11:15;3.08;;;1.38;;
37407;SDS011;24866;50.248;8.252;2023-08-31T13:13:51;4.47;;;1.70;;
37407;SDS011;24866;50.248;8.252;2023-08-31T13:16:22;3.95;;;1.35;;
37407;SDS011;24866;50.248;8.252;2023-08-31T13:18:52;2.38;;;1.35;;
37407;SDS011;24866;50.248;8.252;2023-08-31T13:21:22;3.53;;;1.45;;
37407;SDS011;24866;50.248;8.252;2023-08-31T13:23:52;4.30;;;1.70;;
37407;SDS011;24866;50.248;8.252;2023-08-31T13:26:22;4.13;;;1.20;;
37407;SDS011;24866;50.248;8.252;2023-08-31T13:28:52;3.00;;;1.15;;
37407;SDS011;24866;50.248;8.252;2023-08-31T13:31:23;3.00;;;1.40;;
37407;SDS011;24866;50.248;8.252;2023-08-31T13:33:53;3.53;;;1.30;;
37407;SDS011;24866;50.248;8.252;2023-08-31T13:36:23;3.40;;;1.38;;
37407;SDS011;24866;50.248;8.252;2023-08-31T13:38:53;2.40;;;0.85;;
37407;SDS011;24866;50.248;8.252;2023-08-31T13:41:23;4.22;;;1.58;;
37407;SDS011;24866;50.248;8.252;2023-08-31T13:44:02;2.40;;;1.50;;
37407;SDS011;24866;50.248;8.252;2023-08-31T13:46:33;4.85;;;1.60;;
37407;SDS011;24866;50.248;8.252;2023-08-31T13:49:03;3.00;;;1.38;;
37407;SDS011;24866;50.248;8.252;2023-08-31T13:51:33;3.35;;;1.50;;
37407;SDS011;24866;50.248;8.252;2023-08-31T13:54:03;4.65;;;1.98;;
37407;SDS011;24866;50.248;8.252;2023-08-31T13:56:34;3.72;;;1.42;;
37407;SDS011;24866;50.248;8.252;2023-08-31T13:59:04;4.10;;;1.73;;
37407;SDS011;24866;50.248;8.252;2023-08-31T14:01:35;3.30;;;1.25;;
37407;SDS011;24866;50.248;8.252;2023-08-31T14:04:06;4.35;;;1.58;;
37407;SDS011;24866;50.248;8.252;2023-08-31T14:06:36;5.95;;;1.70;;
37407;SDS011;24866;50.248;8.252;2023-08-31T14:09:05;2.58;;;1.40;;
37407;SDS011;24866;50.248;8.252;2023-08-31T14:11:36;4.70;;;1.67;;
37407;SDS011;24866;50.248;8.252;2023-08-31T14:14:06;3.70;;;1.08;;
37407;SDS011;24866;50.248;8.252;2023-08-31T14:16:40;3.67;;;1.75;;
37407;SDS011;24866;50.248;8.252;2023-08-31T14:19:10;6.88;;;2.13;;
37407;SDS011;24866;50.248;8.252;2023-08-31T14:21:40;4.72;;;1.70;;
37407;SDS011;24866;50.248;8.252;2023-08-31T14:24:10;6.13;;;1.80;;
37407;SDS011;24866;50.248;8.252;2023-08-31T14:26:40;6.65;;;1.67;;
37407;SDS011;24866;50.248;8.252;2023-08-31T14:29:10;3.83;;;1.70;;
37407;SDS011;24866;50.248;8.252;2023-08-31T14:31:42;5.03;;;1.70;;
37407;SDS011;24866;50.248;8.252;2023-08-31T14:34:12;5.38;;;1.95;;
37407;SDS011;24866;50.248;8.252;2023-08-31T14:36:42;3.28;;;1.77;;
37407;SDS011;24866;50.248;8.252;2023-08-31T14:39:12;6.13;;;1.60;;
37407;SDS011;24866;50.248;8.252;2023-08-31T14:41:43;5.72;;;1.02;;
37407;SDS011;24866;50.248;8.252;2023-08-31T14:44:12;4.28;;;1.38;;
37407;SDS011;24866;50.248;8.252;2023-08-31T14:46:44;5.15;;;1.73;;
37407;SDS011;24866;50.248;8.252;2023-08-31T14:49:14;4.45;;;1.90;;
37407;SDS011;24866;50.248;8.252;2023-08-31T14:51:44;5.18;;;1.95;;
37407;SDS011;24866;50.248;8.252;2023-08-31T14:54:14;5.07;;;1.70;;
37407;SDS011;24866;50.248;8.252;2023-08-31T14:56:44;5.22;;;1.55;;
37407;SDS011;24866;50.248;8.252;2023-08-31T14:59:14;2.83;;;1.38;;
37407;SDS011;24866;50.248;8.252;2023-08-31T15:01:45;5.53;;;1.73;;
37407;SDS011;24866;50.248;8.252;2023-08-31T15:04:15;7.75;;;1.77;;
37407;SDS011;24866;50.248;8.252;2023-08-31T15:06:54;7.25;;;1.88;;
37407;SDS011;24866;50.248;8.252;2023-08-31T15:09:24;4.63;;;2.00;;
37407;SDS011;24866;50.248;8.252;2023-08-31T15:11:54;5.40;;;1.85;;
37407;SDS011;24866;50.248;8.252;2023-08-31T15:14:24;4.57;;;1.77;;